Airfield :
LOGIN :

Register | Disclaimer

   EN    FR    IT 

 










Legend :    VFR   Marginal VFR   IFR   Intensive IFR   Very Intensive IFR
Visi :
Ceiling :
>= 8 km
>= 3000ft
5 to 8 km
1000 to 3000 ft
1500m to 5 km
500 to 1000 ft
800 to 1500m
200 to 500 ft
< 800m
< 200 ft
Symbols :   Thunderstorms  Fog  Heavy snow  Heavy precipitations  Wind > 20 kt
SIGMETs :     Misc.  Thunderstorms  Icing  Turbulence  Mountain Waves  Volcanic Ashes







- Airport Elevation : 142 ft
- IATA code : FLR


LIRQ - Firenze Amerigo Vespucci

CURRENT METAR :
  • 141850Z 29005KT 260V320 9999 FEW060 21/18 Q1012

EXPIRED METARs :
  • 141820Z 32005KT 9999 SCT060 22/18 Q1011
  • 141750Z VRB03KT 9999 SCT050TCU 24/20 Q1011
  • 141720Z 08004KT 9999 SCT050TCU BKN070 23/20 Q1011
  • 141650Z 35011KT 9999 -RA BKN050CB 26/15 Q1012
  • 141620Z VRB01KT 9999 SCT060 28/17 Q1011

TAF TAF LIRQ
Valid from the 14 at 18:00 until the 15 at 18:00 UTC


141700Z 1418/1518 VRB04KT 9999 SCT030
TEMPO 1418/1421 TSRA
BECMG 1508/1510 05013KT
No reported NOTAMs for that airfield.
3 SIGMETs reported for the Milano FIR (LIMM) :
 
Embedded thunderstorms
LIMM SIGMET 6 VALID 141810/142010 LIIP
LIMM MILANO FIR EMBD TS FCST E OF LINE N4706 E01100 - N4322 E00834 TOP FL390 MOV E NC=
Severe turbulence
LIMM SIGMET 5 VALID 141800/142000 LIIP
LIMM MILANO FIR SEV TURB FCST W OF LINE N4658 E01038 - N4327 E01024 FL240/380 MOV E NC=
Embedded thunderstorms
LIMM SIGMET 4 VALID 141410/141810 LIIP
LIMM MILANO FIR EMBD TS FCST SE OF LINE N4405 E00658 - N4644 E01247 TOP FL420 STNR NC=



MET'MAP, your aeronautical weather chart ! - Copyright ORBIFLY December 2007 - Disclaimer

ORBIFLY MET'MAP TEAM :

Programming & Development : Alexandra Zaïnal
Concept & Development : Baudouin d'Aumeries
Co-Development & Prog : Marc-Olivier Méhu
Technical & hardware support : Manuel Goepfert

Contact : metmap@orbifly.com




SOURCES & CREDITS :

   NOAA